sensor_id;sensor_type;location;lat;lon;timestamp;temperature;humidity
32107;DHT22;18622;51.998;10.440;2022-12-24T08:02:43;10.40;99.90
32107;DHT22;18622;51.998;10.440;2022-12-24T08:05:11;10.40;99.90
32107;DHT22;18622;51.998;10.440;2022-12-24T08:07:39;10.50;99.90
32107;DHT22;18622;51.998;10.440;2022-12-24T08:10:07;10.50;99.90
32107;DHT22;18622;51.998;10.440;2022-12-24T08:12:35;10.50;99.90
32107;DHT22;18622;51.998;10.440;2022-12-24T08:15:03;10.50;99.90
32107;DHT22;18622;51.998;10.440;2022-12-24T08:17:31;10.60;99.90
32107;DHT22;18622;51.998;10.440;2022-12-24T08:19:59;10.70;99.90
32107;DHT22;18622;51.998;10.440;2022-12-24T08:22:26;10.80;99.90
32107;DHT22;18622;51.998;10.440;2022-12-24T08:24:55;10.80;99.90
32107;DHT22;18622;51.998;10.440;2022-12-24T08:27:22;11.00;99.90
32107;DHT22;18622;51.998;10.440;2022-12-24T08:29:50;11.00;99.90
32107;DHT22;18622;51.998;10.440;2022-12-24T08:32:18;11.10;99.90
32107;DHT22;18622;51.998;10.440;2022-12-24T08:34:46;11.10;99.90
32107;DHT22;18622;51.998;10.440;2022-12-24T08:37:13;11.20;99.90
32107;DHT22;18622;51.998;10.440;2022-12-24T08:39:41;11.30;99.90
32107;DHT22;18622;51.998;10.440;2022-12-24T08:42:09;11.30;99.90
32107;DHT22;18622;51.998;10.440;2022-12-24T08:44:37;11.30;99.90
32107;DHT22;18622;51.998;10.440;2022-12-24T08:47:05;11.40;99.90
32107;DHT22;18622;51.998;10.440;2022-12-24T08:49:32;11.60;99.90
32107;DHT22;18622;51.998;10.440;2022-12-24T08:52:00;11.80;99.90
32107;DHT22;18622;51.998;10.440;2022-12-24T08:54:28;11.90;99.90
32107;DHT22;18622;51.998;10.440;2022-12-24T08:56:56;11.90;99.90
32107;DHT22;18622;51.998;10.440;2022-12-24T08:59:24;11.90;99.90
32107;DHT22;18622;51.998;10.440;2022-12-24T09:01:51;11.90;99.90
32107;DHT22;18622;51.998;10.440;2022-12-24T09:04:19;11.90;99.90
32107;DHT22;18622;51.998;10.440;2022-12-24T09:06:47;11.90;99.90
32107;DHT22;18622;51.998;10.440;2022-12-24T09:09:15;12.00;99.90
32107;DHT22;18622;51.998;10.440;2022-12-24T09:11:43;12.00;99.90
32107;DHT22;18622;51.998;10.440;2022-12-24T09:14:11;12.00;99.90
32107;DHT22;18622;51.998;10.440;2022-12-24T09:16:38;12.10;99.90
32107;DHT22;18622;51.998;10.440;2022-12-24T09:19:06;12.10;99.90
32107;DHT22;18622;51.998;10.440;2022-12-24T09:21:34;12.10;99.90
32107;DHT22;18622;51.998;10.440;2022-12-24T09:24:03;12.10;99.90
32107;DHT22;18622;51.998;10.440;2022-12-24T09:26:31;12.10;99.90
32107;DHT22;18622;51.998;10.440;2022-12-24T09:28:59;12.00;99.90
32107;DHT22;18622;51.998;10.440;2022-12-24T09:31:27;11.90;99.90
32107;DHT22;18622;51.998;10.440;2022-12-24T09:33:55;11.70;99.90
32107;DHT22;18622;51.998;10.440;2022-12-24T09:36:23;11.50;99.90
32107;DHT22;18622;51.998;10.440;2022-12-24T09:38:50;11.30;99.90
32107;DHT22;18622;51.998;10.440;2022-12-24T09:41:35;11.20;99.90
32107;DHT22;18622;51.998;10.440;2022-12-24T09:44:11;11.10;99.90
32107;DHT22;18622;51.998;10.440;2022-12-24T09:46:35;10.90;99.90
32107;DHT22;18622;51.998;10.440;2022-12-24T09:49:09;10.80;99.90
32107;DHT22;18622;51.998;10.440;2022-12-24T09:52:00;10.70;99.90
32107;DHT22;18622;51.998;10.440;2022-12-24T09:54:34;10.60;99.90
32107;DHT22;18622;51.998;10.440;2022-12-24T09:57:19;10.60;99.90
32107;DHT22;18622;51.998;10.440;2022-12-24T09:59:46;10.60;99.90
32107;DHT22;18622;51.998;10.440;2022-12-24T10:02:18;10.80;99.90
32107;DHT22;18622;51.998;10.440;2022-12-24T10:04:47;11.00;99.90
32107;DHT22;18622;51.998;10.440;2022-12-24T10:07:37;11.20;99.90
32107;DHT22;18622;51.998;10.440;2022-12-24T10:10:15;11.30;99.90
32107;DHT22;18622;51.998;10.440;2022-12-24T10:13:11;11.30;99.90
32107;DHT22;18622;51.998;10.440;2022-12-24T10:21:14;11.30;99.90
32107;DHT22;18622;51.998;10.440;2022-12-24T10:23:50;11.20;99.90
32107;DHT22;18622;51.998;10.440;2022-12-24T10:26:34;11.20;99.90
32107;DHT22;18622;51.998;10.440;2022-12-24T10:28:58;11.10;99.90
32107;DHT22;18622;51.998;10.440;2022-12-24T10:31:32;11.00;99.90
32107;DHT22;18622;51.998;10.440;2022-12-24T10:34:04;10.90;99.90
32107;DHT22;18622;51.998;10.440;2022-12-24T10:36:31;10.80;99.90
32107;DHT22;18622;51.998;10.440;2022-12-24T10:38:59;10.80;99.90
32107;DHT22;18622;51.998;10.440;2022-12-24T10:41:27;10.70;99.90
32107;DHT22;18622;51.998;10.440;2022-12-24T10:43:56;10.70;99.90
32107;DHT22;18622;51.998;10.440;2022-12-24T10:46:38;10.60;99.90
32107;DHT22;18622;51.998;10.440;2022-12-24T10:49:16;10.60;99.90
32107;DHT22;18622;51.998;10.440;2022-12-24T10:54:30;10.60;99.90
32107;DHT22;18622;51.998;10.440;2022-12-24T10:57:01;10.60;99.90
32107;DHT22;18622;51.998;10.440;2022-12-24T10:59:35;10.60;99.90
32107;DHT22;18622;51.998;10.440;2022-12-24T11:02:02;10.50;99.90
32107;DHT22;18622;51.998;10.440;2022-12-24T11:04:31;10.40;99.90
32107;DHT22;18622;51.998;10.440;2022-12-24T11:07:05;10.30;99.90
32107;DHT22;18622;51.998;10.440;2022-12-24T11:09:35;10.30;99.90
32107;DHT22;18622;51.998;10.440;2022-12-24T11:12:05;10.20;99.90
32107;DHT22;18622;51.998;10.440;2022-12-24T11:14:33;10.20;99.90
32107;DHT22;18622;51.998;10.440;2022-12-24T11:17:01;10.20;99.90
32107;DHT22;18622;51.998;10.440;2022-12-24T11:19:36;10.20;99.90
32107;DHT22;18622;51.998;10.440;2022-12-24T11:22:19;10.10;99.90
32107;DHT22;18622;51.998;10.440;2022-12-24T11:24:38;10.10;99.90
32107;DHT22;18622;51.998;10.440;2022-12-24T11:30:25;10.20;99.90
32107;DHT22;18622;51.998;10.440;2022-12-24T11:35:29;10.20;99.90
32107;DHT22;18622;51.998;10.440;2022-12-24T11:40:43;10.30;99.90
32107;DHT22;18622;51.998;10.440;2022-12-24T11:43:17;10.30;99.90
32107;DHT22;18622;51.998;10.440;2022-12-24T11:45:55;10.30;99.90
32107;DHT22;18622;51.998;10.440;2022-12-24T11:48:33;10.20;99.90
32107;DHT22;18622;51.998;10.440;2022-12-24T11:51:03;10.30;99.90
32107;DHT22;18622;51.998;10.440;2022-12-24T11:53:37;10.30;99.90
32107;DHT22;18622;51.998;10.440;2022-12-24T11:56:27;10.30;99.90
32107;DHT22;18622;51.998;10.440;2022-12-24T11:58:59;10.30;99.90
32107;DHT22;18622;51.998;10.440;2022-12-24T12:01:52;10.30;99.90
32107;DHT22;18622;51.998;10.440;2022-12-24T12:04:29;10.40;99.90
32107;DHT22;18622;51.998;10.440;2022-12-24T12:07:00;10.50;99.90
32107;DHT22;18622;51.998;10.440;2022-12-24T12:09:37;10.60;99.90
32107;DHT22;18622;51.998;10.440;2022-12-24T12:12:05;10.60;99.90
32107;DHT22;18622;51.998;10.440;2022-12-24T12:14:42;10.60;99.90
32107;DHT22;18622;51.998;10.440;2022-12-24T12:17:13;10.60;99.90
32107;DHT22;18622;51.998;10.440;2022-12-24T12:19:47;10.60;99.90
32107;DHT22;18622;51.998;10.440;2022-12-24T12:24:51;10.50;99.90
32107;DHT22;18622;51.998;10.440;2022-12-24T12:27:30;10.50;99.90
32107;DHT22;18622;51.998;10.440;2022-12-24T12:30:02;10.50;99.90
32107;DHT22;18622;51.998;10.440;2022-12-24T12:32:56;10.30;99.90
32107;DHT22;18622;51.998;10.440;2022-12-24T12:35:30;10.10;99.90
32107;DHT22;18622;51.998;10.440;2022-12-24T12:38:00;9.90;99.90
32107;DHT22;18622;51.998;10.440;2022-12-24T12:43:08;9.70;99.90
32107;DHT22;18622;51.998;10.440;2022-12-24T12:45:37;9.60;99.90
32107;DHT22;18622;51.998;10.440;2022-12-24T12:48:17;9.60;99.90
32107;DHT22;18622;51.998;10.440;2022-12-24T12:53:48;9.70;99.90
32107;DHT22;18622;51.998;10.440;2022-12-24T12:56:33;9.90;99.90
32107;DHT22;18622;51.998;10.440;2022-12-24T12:59:08;10.20;99.90
32107;DHT22;18622;51.998;10.440;2022-12-24T13:01:45;10.50;99.90
32107;DHT22;18622;51.998;10.440;2022-12-24T13:04:28;10.70;99.90
32107;DHT22;18622;51.998;10.440;2022-12-24T13:09:52;11.10;99.90
32107;DHT22;18622;51.998;10.440;2022-12-24T13:12:46;11.30;99.90
32107;DHT22;18622;51.998;10.440;2022-12-24T13:15:24;11.50;99.90
32107;DHT22;18622;51.998;10.440;2022-12-24T13:18:12;11.80;99.90
32107;DHT22;18622;51.998;10.440;2022-12-24T13:20:45;11.70;99.90
32107;DHT22;18622;51.998;10.440;2022-12-24T13:23:13;11.70;99.90
32107;DHT22;18622;51.998;10.440;2022-12-24T13:25:44;11.70;99.90
32107;DHT22;18622;51.998;10.440;2022-12-24T13:28:16;11.70;99.90
32107;DHT22;18622;51.998;10.440;2022-12-24T13:30:44;11.70;99.90
32107;DHT22;18622;51.998;10.440;2022-12-24T13:33:13;11.70;99.90
32107;DHT22;18622;51.998;10.440;2022-12-24T13:35:55;11.80;99.90
32107;DHT22;18622;51.998;10.440;2022-12-24T13:46:55;11.50;99.90
32107;DHT22;18622;51.998;10.440;2022-12-24T13:49:28;11.50;99.90
32107;DHT22;18622;51.998;10.440;2022-12-24T13:54:44;11.60;99.90
32107;DHT22;18622;51.998;10.440;2022-12-24T14:00:21;11.60;99.90
32107;DHT22;18622;51.998;10.440;2022-12-24T14:02:39;11.60;99.90
32107;DHT22;18622;51.998;10.440;2022-12-24T14:05:14;11.60;99.90
32107;DHT22;18622;51.998;10.440;2022-12-24T14:07:43;11.60;99.90
32107;DHT22;18622;51.998;10.440;2022-12-24T14:10:17;11.50;99.90
32107;DHT22;18622;51.998;10.440;2022-12-24T14:12:49;11.50;99.90
32107;DHT22;18622;51.998;10.440;2022-12-24T14:18:19;11.60;99.90
32107;DHT22;18622;51.998;10.440;2022-12-24T14:20:53;11.60;99.90
32107;DHT22;18622;51.998;10.440;2022-12-24T14:23:53;11.50;99.90
32107;DHT22;18622;51.998;10.440;2022-12-24T14:26:24;11.40;99.90
32107;DHT22;18622;51.998;10.440;2022-12-24T14:31:24;11.30;99.90
32107;DHT22;18622;51.998;10.440;2022-12-24T14:33:58;11.30;99.90
32107;DHT22;18622;51.998;10.440;2022-12-24T14:36:22;11.30;99.90
32107;DHT22;18622;51.998;10.440;2022-12-24T14:38:50;11.30;99.90
32107;DHT22;18622;51.998;10.440;2022-12-24T14:41:29;11.30;99.90
32107;DHT22;18622;51.998;10.440;2022-12-24T14:44:12;11.30;99.90
32107;DHT22;18622;51.998;10.440;2022-12-24T14:46:43;11.30;99.90
32107;DHT22;18622;51.998;10.440;2022-12-24T14:52:15;11.30;99.90
32107;DHT22;18622;51.998;10.440;2022-12-24T14:54:42;11.20;99.90
32107;DHT22;18622;51.998;10.440;2022-12-24T14:57:13;11.30;99.90
32107;DHT22;18622;51.998;10.440;2022-12-24T14:59:52;11.30;99.90
32107;DHT22;18622;51.998;10.440;2022-12-24T15:02:37;11.30;99.90
32107;DHT22;18622;51.998;10.440;2022-12-24T15:08:29;11.40;99.90
32107;DHT22;18622;51.998;10.440;2022-12-24T15:10:39;11.30;99.90
32107;DHT22;18622;51.998;10.440;2022-12-24T15:13:15;11.30;99.90
32107;DHT22;18622;51.998;10.440;2022-12-24T15:15:43;11.20;99.90
32107;DHT22;18622;51.998;10.440;2022-12-24T15:18:18;11.10;99.90
32107;DHT22;18622;51.998;10.440;2022-12-24T15:20:49;11.10;99.90
32107;DHT22;18622;51.998;10.440;2022-12-24T15:23:19;11.00;99.90
32107;DHT22;18622;51.998;10.440;2022-12-24T15:25:47;11.00;99.90
32107;DHT22;18622;51.998;10.440;2022-12-24T15:28:18;10.90;99.90
32107;DHT22;18622;51.998;10.440;2022-12-24T15:30:46;10.90;99.90
32107;DHT22;18622;51.998;10.440;2022-12-24T15:33:13;10.90;99.90
32107;DHT22;18622;51.998;10.440;2022-12-24T15:35:55;10.90;99.90
32107;DHT22;18622;51.998;10.440;2022-12-24T15:38:32;10.90;99.90
32107;DHT22;18622;51.998;10.440;2022-12-24T15:41:03;10.80;99.90
32107;DHT22;18622;51.998;10.440;2022-12-24T15:43:31;10.70;99.90
32107;DHT22;18622;51.998;10.440;2022-12-24T15:45:59;10.70;99.90
32107;DHT22;18622;51.998;10.440;2022-12-24T15:48:28;10.70;99.90
32107;DHT22;18622;51.998;10.440;2022-12-24T15:50:59;10.80;99.90
32107;DHT22;18622;51.998;10.440;2022-12-24T15:53:34;10.80;99.90
32107;DHT22;18622;51.998;10.440;2022-12-24T15:56:41;10.80;99.90
32107;DHT22;18622;51.998;10.440;2022-12-24T15:58:43;10.90;99.90
32107;DHT22;18622;51.998;10.440;2022-12-24T16:03:54;11.00;99.90
32107;DHT22;18622;51.998;10.440;2022-12-24T16:06:23;10.90;99.90
32107;DHT22;18622;51.998;10.440;2022-12-24T16:08:50;11.00;99.90
32107;DHT22;18622;51.998;10.440;2022-12-24T16:11:32;10.90;99.90
32107;DHT22;18622;51.998;10.440;2022-12-24T16:14:10;10.90;99.90
32107;DHT22;18622;51.998;10.440;2022-12-24T16:16:43;10.90;99.90
32107;DHT22;18622;51.998;10.440;2022-12-24T16:19:22;10.90;99.90
32107;DHT22;18622;51.998;10.440;2022-12-24T16:21:53;10.80;99.90
32107;DHT22;18622;51.998;10.440;2022-12-24T16:24:26;10.70;99.90
32107;DHT22;18622;51.998;10.440;2022-12-24T16:26:54;10.60;99.90
32107;DHT22;18622;51.998;10.440;2022-12-24T16:29:22;10.50;99.90
32107;DHT22;18622;51.998;10.440;2022-12-24T16:31:55;10.40;99.90
32107;DHT22;18622;51.998;10.440;2022-12-24T16:34:26;10.30;99.90
32107;DHT22;18622;51.998;10.440;2022-12-24T16:36:55;10.20;99.90
32107;DHT22;18622;51.998;10.440;2022-12-24T16:39:31;10.20;99.90
32107;DHT22;18622;51.998;10.440;2022-12-24T16:42:02;10.10;99.90
32107;DHT22;18622;51.998;10.440;2022-12-24T16:44:47;10.10;99.90
32107;DHT22;18622;51.998;10.440;2022-12-24T16:47:22;10.10;99.90
32107;DHT22;18622;51.998;10.440;2022-12-24T16:49:50;10.00;99.90
32107;DHT22;18622;51.998;10.440;2022-12-24T16:52:23;9.90;99.90
32107;DHT22;18622;51.998;10.440;2022-12-24T16:54:54;9.90;99.90
32107;DHT22;18622;51.998;10.440;2022-12-24T16:57:23;9.90;99.90
32107;DHT22;18622;51.998;10.440;2022-12-24T16:59:51;10.00;99.90
32107;DHT22;18622;51.998;10.440;2022-12-24T17:02:21;10.00;99.90
32107;DHT22;18622;51.998;10.440;2022-12-24T17:04:49;10.00;99.90
32107;DHT22;18622;51.998;10.440;2022-12-24T17:07:18;9.90;99.90
32107;DHT22;18622;51.998;10.440;2022-12-24T17:09:47;9.90;99.90
32107;DHT22;18622;51.998;10.440;2022-12-24T17:12:15;9.90;99.90
32107;DHT22;18622;51.998;10.440;2022-12-24T17:14:43;9.90;99.90
32107;DHT22;18622;51.998;10.440;2022-12-24T17:17:22;9.90;99.90
32107;DHT22;18622;51.998;10.440;2022-12-24T17:19:47;9.80;99.90
32107;DHT22;18622;51.998;10.440;2022-12-24T17:22:15;9.90;99.90
32107;DHT22;18622;51.998;10.440;2022-12-24T17:24:43;9.90;99.90
32107;DHT22;18622;51.998;10.440;2022-12-24T17:27:11;9.90;99.90
32107;DHT22;18622;51.998;10.440;2022-12-24T17:29:39;9.90;99.90
32107;DHT22;18622;51.998;10.440;2022-12-24T17:32:07;10.00;99.90
32107;DHT22;18622;51.998;10.440;2022-12-24T17:34:35;10.00;99.90
32107;DHT22;18622;51.998;10.440;2022-12-24T17:37:03;10.10;99.90
32107;DHT22;18622;51.998;10.440;2022-12-24T17:39:30;10.10;99.90
32107;DHT22;18622;51.998;10.440;2022-12-24T17:41:58;10.10;99.90
32107;DHT22;18622;51.998;10.440;2022-12-24T17:44:26;10.20;99.90
32107;DHT22;18622;51.998;10.440;2022-12-24T17:46:54;10.20;99.90
32107;DHT22;18622;51.998;10.440;2022-12-24T17:49:22;10.20;99.90
32107;DHT22;18622;51.998;10.440;2022-12-24T17:51:49;10.10;99.90
32107;DHT22;18622;51.998;10.440;2022-12-24T17:54:17;10.10;99.90
32107;DHT22;18622;51.998;10.440;2022-12-24T17:56:45;10.10;99.90
32107;DHT22;18622;51.998;10.440;2022-12-24T17:59:13;10.10;99.90
32107;DHT22;18622;51.998;10.440;2022-12-24T18:01:41;10.10;99.90
32107;DHT22;18622;51.998;10.440;2022-12-24T18:04:09;10.00;99.90
32107;DHT22;18622;51.998;10.440;2022-12-24T18:06:40;10.00;99.90
32107;DHT22;18622;51.998;10.440;2022-12-24T18:09:07;9.90;99.90
32107;DHT22;18622;51.998;10.440;2022-12-24T18:11:36;9.90;99.90
32107;DHT22;18622;51.998;10.440;2022-12-24T18:14:04;9.90;99.90
32107;DHT22;18622;51.998;10.440;2022-12-24T18:16:35;9.80;99.90
32107;DHT22;18622;51.998;10.440;2022-12-24T18:19:04;9.80;99.90
32107;DHT22;18622;51.998;10.440;2022-12-24T18:21:32;9.80;99.90
32107;DHT22;18622;51.998;10.440;2022-12-24T18:24:00;9.80;99.90
32107;DHT22;18622;51.998;10.440;2022-12-24T18:26:29;9.70;99.90
32107;DHT22;18622;51.998;10.440;2022-12-24T18:28:58;9.60;99.90
32107;DHT22;18622;51.998;10.440;2022-12-24T18:31:27;9.50;99.90
32107;DHT22;18622;51.998;10.440;2022-12-24T18:33:55;9.50;99.90
32107;DHT22;18622;51.998;10.440;2022-12-24T18:36:23;9.40;99.90
32107;DHT22;18622;51.998;10.440;2022-12-24T18:38:51;9.40;99.90
32107;DHT22;18622;51.998;10.440;2022-12-24T18:41:24;9.30;99.90
32107;DHT22;18622;51.998;10.440;2022-12-24T18:43:53;9.20;99.90
32107;DHT22;18622;51.998;10.440;2022-12-24T18:46:23;9.10;99.90
32107;DHT22;18622;51.998;10.440;2022-12-24T18:48:50;9.00;99.90
32107;DHT22;18622;51.998;10.440;2022-12-24T18:51:19;9.00;99.90
32107;DHT22;18622;51.998;10.440;2022-12-24T18:53:49;8.90;99.90
32107;DHT22;18622;51.998;10.440;2022-12-24T18:56:20;8.80;99.90
32107;DHT22;18622;51.998;10.440;2022-12-24T18:58:50;8.70;99.90
32107;DHT22;18622;51.998;10.440;2022-12-24T19:01:25;8.60;99.90
32107;DHT22;18622;51.998;10.440;2022-12-24T19:03:49;8.50;99.90
32107;DHT22;18622;51.998;10.440;2022-12-24T19:06:17;8.40;99.90
32107;DHT22;18622;51.998;10.440;2022-12-24T19:08:45;8.40;99.90
32107;DHT22;18622;51.998;10.440;2022-12-24T19:11:13;8.30;99.90
32107;DHT22;18622;51.998;10.440;2022-12-24T19:13:46;8.30;99.90
32107;DHT22;18622;51.998;10.440;2022-12-24T19:16:15;8.20;99.90
32107;DHT22;18622;51.998;10.440;2022-12-24T19:18:42;8.10;99.90
32107;DHT22;18622;51.998;10.440;2022-12-24T19:21:12;8.00;99.90
32107;DHT22;18622;51.998;10.440;2022-12-24T19:23:40;7.80;99.90
32107;DHT22;18622;51.998;10.440;2022-12-24T19:26:13;7.70;99.90
32107;DHT22;18622;51.998;10.440;2022-12-24T19:28:41;7.50;99.90
32107;DHT22;18622;51.998;10.440;2022-12-24T19:31:11;7.40;99.90
32107;DHT22;18622;51.998;10.440;2022-12-24T19:33:44;7.20;99.90
32107;DHT22;18622;51.998;10.440;2022-12-24T19:36:14;7.20;99.90
32107;DHT22;18622;51.998;10.440;2022-12-24T19:38:42;7.00;99.90
32107;DHT22;18622;51.998;10.440;2022-12-24T19:41:13;6.90;99.90
32107;DHT22;18622;51.998;10.440;2022-12-24T19:43:42;6.80;99.90
32107;DHT22;18622;51.998;10.440;2022-12-24T19:46:13;6.70;99.90
32107;DHT22;18622;51.998;10.440;2022-12-24T19:48:41;6.60;99.90
32107;DHT22;18622;51.998;10.440;2022-12-24T19:51:11;6.60;99.90
32107;DHT22;18622;51.998;10.440;2022-12-24T19:53:39;6.50;99.90
32107;DHT22;18622;51.998;10.440;2022-12-24T19:56:07;6.40;99.90
32107;DHT22;18622;51.998;10.440;2022-12-24T19:58:35;6.30;99.90
32107;DHT22;18622;51.998;10.440;2022-12-24T20:01:07;6.20;99.90
32107;DHT22;18622;51.998;10.440;2022-12-24T20:03:38;6.20;99.90
32107;DHT22;18622;51.998;10.440;2022-12-24T20:06:06;6.20;99.90
32107;DHT22;18622;51.998;10.440;2022-12-24T20:08:34;6.30;99.90
32107;DHT22;18622;51.998;10.440;2022-12-24T20:11:07;6.30;99.90
32107;DHT22;18622;51.998;10.440;2022-12-24T20:13:36;6.50;99.90
32107;DHT22;18622;51.998;10.440;2022-12-24T20:16:12;6.70;99.90
32107;DHT22;18622;51.998;10.440;2022-12-24T20:18:40;6.80;99.90
32107;DHT22;18622;51.998;10.440;2022-12-24T20:21:10;7.00;99.90
32107;DHT22;18622;51.998;10.440;2022-12-24T20:23:39;7.20;99.90
32107;DHT22;18622;51.998;10.440;2022-12-24T20:26:10;7.30;99.90
32107;DHT22;18622;51.998;10.440;2022-12-24T20:28:38;7.30;99.90
32107;DHT22;18622;51.998;10.440;2022-12-24T20:31:14;7.40;99.90
32107;DHT22;18622;51.998;10.440;2022-12-24T20:33:43;7.40;99.90
32107;DHT22;18622;51.998;10.440;2022-12-24T20:36:11;7.60;99.90
32107;DHT22;18622;51.998;10.440;2022-12-24T20:38:41;7.70;99.90
32107;DHT22;18622;51.998;10.440;2022-12-24T20:41:10;7.90;99.90
32107;DHT22;18622;51.998;10.440;2022-12-24T20:43:40;8.00;99.90
32107;DHT22;18622;51.998;10.440;2022-12-24T20:46:08;8.00;99.90
32107;DHT22;18622;51.998;10.440;2022-12-24T20:48:36;8.20;99.90
32107;DHT22;18622;51.998;10.440;2022-12-24T20:51:07;8.30;99.90
32107;DHT22;18622;51.998;10.440;2022-12-24T20:53:35;8.40;99.90
32107;DHT22;18622;51.998;10.440;2022-12-24T20:56:04;8.50;99.90
32107;DHT22;18622;51.998;10.440;2022-12-24T20:58:32;8.50;99.90
32107;DHT22;18622;51.998;10.440;2022-12-24T21:01:11;8.50;99.90
32107;DHT22;18622;51.998;10.440;2022-12-24T21:03:39;8.50;99.90
32107;DHT22;18622;51.998;10.440;2022-12-24T21:06:07;8.70;99.90
32107;DHT22;18622;51.998;10.440;2022-12-24T21:08:35;8.70;99.90
32107;DHT22;18622;51.998;10.440;2022-12-24T21:11:03;8.70;99.90
32107;DHT22;18622;51.998;10.440;2022-12-24T21:13:48;8.80;99.90
32107;DHT22;18622;51.998;10.440;2022-12-24T21:16:16;8.80;99.90
32107;DHT22;18622;51.998;10.440;2022-12-24T21:18:44;8.80;99.90
32107;DHT22;18622;51.998;10.440;2022-12-24T21:21:12;8.90;99.90
32107;DHT22;18622;51.998;10.440;2022-12-24T21:23:40;8.90;99.90
32107;DHT22;18622;51.998;10.440;2022-12-24T21:26:08;8.90;99.90
32107;DHT22;18622;51.998;10.440;2022-12-24T21:28:38;8.80;99.90
32107;DHT22;18622;51.998;10.440;2022-12-24T21:31:10;8.80;99.90
32107;DHT22;18622;51.998;10.440;2022-12-24T21:33:39;8.70;99.90
32107;DHT22;18622;51.998;10.440;2022-12-24T21:36:06;8.70;99.90
32107;DHT22;18622;51.998;10.440;2022-12-24T21:38:34;8.50;99.90
32107;DHT22;18622;51.998;10.440;2022-12-24T21:41:05;8.40;99.90
32107;DHT22;18622;51.998;10.440;2022-12-24T21:43:34;8.20;99.90
32107;DHT22;18622;51.998;10.440;2022-12-24T21:46:06;8.00;99.90
32107;DHT22;18622;51.998;10.440;2022-12-24T21:48:35;7.80;99.90
32107;DHT22;18622;51.998;10.440;2022-12-24T21:51:17;7.70;99.90
32107;DHT22;18622;51.998;10.440;2022-12-24T21:53:45;7.60;99.90
32107;DHT22;18622;51.998;10.440;2022-12-24T21:56:30;7.60;99.90
32107;DHT22;18622;51.998;10.440;2022-12-24T21:59:00;7.60;99.90
32107;DHT22;18622;51.998;10.440;2022-12-24T22:01:28;7.60;99.90
32107;DHT22;18622;51.998;10.440;2022-12-24T22:13:52;7.60;99.90
32107;DHT22;18622;51.998;10.440;2022-12-24T22:16:19;7.60;99.90
32107;DHT22;18622;51.998;10.440;2022-12-24T22:18:47;7.60;99.90
32107;DHT22;18622;51.998;10.440;2022-12-24T22:21:15;7.60;99.90
32107;DHT22;18622;51.998;10.440;2022-12-24T22:23:43;7.70;99.90
32107;DHT22;18622;51.998;10.440;2022-12-24T22:26:13;7.70;99.90
32107;DHT22;18622;51.998;10.440;2022-12-24T22:28:41;7.70;99.90
32107;DHT22;18622;51.998;10.440;2022-12-24T22:31:20;7.60;99.90
32107;DHT22;18622;51.998;10.440;2022-12-24T22:33:50;7.50;99.90
32107;DHT22;18622;51.998;10.440;2022-12-24T22:36:18;7.60;99.90
32107;DHT22;18622;51.998;10.440;2022-12-24T22:38:46;7.60;99.90
32107;DHT22;18622;51.998;10.440;2022-12-24T22:41:14;7.60;99.90
32107;DHT22;18622;51.998;10.440;2022-12-24T22:43:42;7.70;99.90
